CDU weather

Camden Airport
New South Wales, Australia

Public forecast

Using degrees Celsius for public forecast. Weather courtesy of forecast.io.

METAR (pilot weather report)

Closest report is Sydney Kingsford Smith International Airport, 25.0 nm (46.4 km) ENE. Retrieved 2018/02/24 23:25 UTC (34 seconds ago):

YSSY 242325Z 17020KT 9999 FEW009 SCT013 BKN023 21/19 Q1007 TEMPO 2325/0225 4000 RA BKN008 FM2325 MOD TURB BLW 5000FT

TAF (pilot weather forecast)

Forecast is more than 6 hours old.

Closest forecast is Sydney Kingsford Smith International Airport, 25.0 nm (46.4 km) ENE. Retrieved 2018/02/24 12:00 UTC (11 hours ago):

TAF YSSY 241105Z 2412/2518 01015KT CAVOK FM241400 33010KT CAVOK FM241800 18023G35KT 8000 -RA SCT010 BKN020 FM251200 15020KT 8000 -SHRA SCT008 BKN020 TEMPO 2419/2518 4000 RA BKN008